createdAt,value
2023-03-18T17:11:10.239Z,6.54
2023-03-18T17:13:44.805Z,6.47
2023-03-18T17:16:19.016Z,6.41
2023-03-18T17:18:47.165Z,6.35
2023-03-18T17:21:18.514Z,6.30
2023-03-18T17:23:47.937Z,6.25
2023-03-18T17:26:16.414Z,6.21
2023-03-18T17:28:48.398Z,6.18
2023-03-18T17:31:17.123Z,6.15
2023-03-18T17:33:51.185Z,6.15
2023-03-18T17:36:20.655Z,6.12
2023-03-18T17:38:48.980Z,6.09
2023-03-18T17:41:21.345Z,6.06
2023-03-18T17:43:54.954Z,6.03
2023-03-18T17:46:23.307Z,5.97
2023-03-18T17:48:51.798Z,5.90
2023-03-18T17:51:24.705Z,5.86
2023-03-18T17:53:56.885Z,5.83
2023-03-18T17:56:25.985Z,5.79
2023-03-18T17:58:56.696Z,5.74
2023-03-18T18:01:30.205Z,5.67
2023-03-18T18:03:59.140Z,5.58
2023-03-18T18:06:30.742Z,5.52
2023-03-18T18:09:00.491Z,5.47
2023-03-18T18:11:35.776Z,5.44
2023-03-18T18:14:25.785Z,5.43
2023-03-18T18:16:54.186Z,5.40
2023-03-18T18:19:24.322Z,5.36
2023-03-18T18:21:53.465Z,5.31
2023-03-18T18:24:29.078Z,5.26
2023-03-18T18:26:57.394Z,5.22
2023-03-18T18:29:28.318Z,5.17
2023-03-18T18:31:58.048Z,5.15
2023-03-18T18:34:26.806Z,5.14
2023-03-18T18:36:54.802Z,5.15
2023-03-18T18:39:22.997Z,5.19
2023-03-18T18:42:10.182Z,5.14
2023-03-18T18:44:39.004Z,5.11
2023-03-18T18:47:19.611Z,5.09
2023-03-18T18:49:52.011Z,5.03
2023-03-18T18:52:20.225Z,4.99
2023-03-18T18:54:48.468Z,4.99
2023-03-18T18:57:29.451Z,5.00
2023-03-18T18:59:59.280Z,5.09
2023-03-18T19:02:33.924Z,5.19
2023-03-18T19:05:04.777Z,5.20
2023-03-18T19:07:33.818Z,5.12
2023-03-18T19:10:01.879Z,5.04
2023-03-18T19:12:30.394Z,4.96
2023-03-18T19:14:59.829Z,4.90
2023-03-18T19:17:28.380Z,4.89
2023-03-18T19:19:56.880Z,4.88
2023-03-18T19:22:26.280Z,4.86
2023-03-18T19:24:54.917Z,4.80
2023-03-18T19:27:30.330Z,4.71
2023-03-18T19:30:00.157Z,4.67
2023-03-18T19:32:28.204Z,4.67
2023-03-18T19:34:59.432Z,4.71
2023-03-18T19:37:32.427Z,4.76
2023-03-18T19:40:01.813Z,4.77
2023-03-18T19:42:30.571Z,4.76
2023-03-18T19:44:58.726Z,4.72
2023-03-18T19:47:31.766Z,4.67
2023-03-18T19:50:01.801Z,4.67
2023-03-18T19:52:33.354Z,4.67
2023-03-18T19:55:08.255Z,4.71
2023-03-18T19:57:37.537Z,4.76
2023-03-18T20:00:30.295Z,4.82
2023-03-18T20:02:58.675Z,4.90
2023-03-18T20:05:27.771Z,4.94
2023-03-18T20:07:56.747Z,4.96
2023-03-18T20:10:25.124Z,4.96
2023-03-18T20:12:57.643Z,4.94
2023-03-18T20:15:28.948Z,4.90
2023-03-18T20:18:01.051Z,4.82
2023-03-18T20:20:32.176Z,4.68
2023-03-18T20:23:02.281Z,4.61
2023-03-18T20:25:32.951Z,4.51
2023-03-18T20:28:04.799Z,4.39
2023-03-18T20:30:37.771Z,4.26
2023-03-18T20:33:07.472Z,4.16
2023-03-18T20:35:39.337Z,4.06
2023-03-18T20:38:10.533Z,3.96
2023-03-18T20:40:41.151Z,3.90
2023-03-18T20:43:19.280Z,3.80
2023-03-18T20:45:51.771Z,3.71
2023-03-18T20:48:21.114Z,3.64
2023-03-18T20:50:51.899Z,3.56
2023-03-18T20:53:22.616Z,3.47
2023-03-18T20:55:51.136Z,3.39
2023-03-18T20:58:22.247Z,3.32
2023-03-18T21:00:52.328Z,3.33
2023-03-18T21:03:29.648Z,3.38
2023-03-18T21:05:59.048Z,3.38
2023-03-18T21:08:28.440Z,3.36
2023-03-18T21:11:03.355Z,3.32
2023-03-18T21:13:38.004Z,3.29
2023-03-18T21:16:09.961Z,3.20
2023-03-18T21:18:45.517Z,3.17
2023-03-18T21:21:18.085Z,3.13
2023-03-18T21:23:49.376Z,3.05
2023-03-18T21:26:19.351Z,2.96
2023-03-18T21:28:48.469Z,2.89
2023-03-18T21:31:26.290Z,2.80
2023-03-18T21:33:55.414Z,2.77
2023-03-18T21:36:26.480Z,2.81
2023-03-18T21:38:55.467Z,2.84
2023-03-18T21:41:28.204Z,2.82
2023-03-18T21:43:56.429Z,2.82
2023-03-18T21:46:27.090Z,2.81
2023-03-18T21:48:55.997Z,2.78
2023-03-18T21:51:38.731Z,2.74
2023-03-18T21:54:20.583Z,2.67
2023-03-18T21:56:51.752Z,2.62
2023-03-18T21:59:23.080Z,2.57
2023-03-18T22:01:53.236Z,2.50
2023-03-18T22:04:22.268Z,2.48
2023-03-18T22:06:51.038Z,2.50
2023-03-18T22:09:19.100Z,2.55
2023-03-18T22:11:47.120Z,2.58
2023-03-18T22:14:22.352Z,2.64
2023-03-18T22:16:50.400Z,2.66
2023-03-18T22:19:18.739Z,2.71
2023-03-18T22:21:46.969Z,2.76
2023-03-18T22:24:15.764Z,2.81
2023-03-18T22:26:43.931Z,2.78
2023-03-18T22:29:12.631Z,2.67
2023-03-18T22:31:43.790Z,2.55
2023-03-18T22:34:22.665Z,2.46
2023-03-18T22:36:50.699Z,2.48
2023-03-18T22:39:18.796Z,2.49
2023-03-18T22:41:50.946Z,2.48
2023-03-18T22:44:22.759Z,2.51
2023-03-18T22:46:51.034Z,2.62
2023-03-18T22:49:19.114Z,2.71
2023-03-18T22:51:48.031Z,2.78
2023-03-18T22:54:19.136Z,2.83
2023-03-18T22:56:47.130Z,2.83
2023-03-18T22:59:15.360Z,2.81
2023-03-18T23:01:43.982Z,2.75
2023-03-18T23:04:12.344Z,2.60
2023-03-18T23:06:44.252Z,2.42
2023-03-18T23:09:13.886Z,2.38
2023-03-18T23:11:41.918Z,2.42
2023-03-18T23:14:11.075Z,2.49
2023-03-18T23:16:41.414Z,2.53
2023-03-18T23:19:09.586Z,2.51
2023-03-18T23:21:37.852Z,2.51
2023-03-18T23:24:07.247Z,2.56
2023-03-18T23:26:36.801Z,2.48
2023-03-18T23:29:06.153Z,2.38
2023-03-18T23:31:34.403Z,2.39
2023-03-18T23:34:03.712Z,2.35
2023-03-18T23:36:32.711Z,2.25
2023-03-18T23:39:01.392Z,2.17
2023-03-18T23:41:30.816Z,2.12
2023-03-18T23:44:03.264Z,2.10
2023-03-18T23:46:32.752Z,2.09
2023-03-18T23:49:00.831Z,2.07
2023-03-18T23:51:29.133Z,2.12
2023-03-18T23:53:57.185Z,2.19
2023-03-18T23:56:26.316Z,2.33
2023-03-18T23:58:54.974Z,2.49
